Time;durP1;ratioP1;P1;durP2;ratioP2;P2;SDS_P1;SDS_P2;PMS_P1;PMS_P2;Temp;Humidity;BMP_temperature;BMP_pressure;BME280_temperature;BME280_humidity;BME280_pressure;Samples;Min_cycle;Max_cycle;Signal;HPM_P1;HPM_P2
2023/10/26 00:02:12;;;;;;;24.08;15.95;;;;;;;;;;5050422;28;20044;-65
2023/10/26 00:04:38;;;;;;;29.63;16.95;;;;;;;;;;5050790;28;20121;-65
2023/10/26 00:07:05;;;;;;;26.48;17.27;;;;;;;;;;5050578;28;20041;-65
2023/10/26 00:09:32;;;;;;;26.92;17.13;;;;;;;;;;5050018;28;20076;-65
2023/10/26 00:11:57;;;;;;;22.63;15.95;;;;;;;;;;5050541;28;20502;-65
2023/10/26 00:14:23;;;;;;;27.35;17.10;;;;;;;;;;5050782;28;20140;-65
2023/10/26 00:16:49;;;;;;;24.67;17.35;;;;;;;;;;5050176;28;20443;-65
2023/10/26 00:19:15;;;;;;;31.63;17.52;;;;;;;;;;5050674;28;20175;-65
2023/10/26 00:21:41;;;;;;;25.15;17.48;;;;;;;;;;5050841;28;20304;-65
2023/10/26 00:24:08;;;;;;;26.75;17.15;;;;;;;;;;5050131;28;20063;-65
2023/10/26 00:26:34;;;;;;;26.30;17.30;;;;;;;;;;5050118;28;20063;-65
2023/10/26 00:29:00;;;;;;;27.20;17.63;;;;;;;;;;5050246;28;20037;-65
2023/10/26 00:31:26;;;;;;;27.33;17.92;;;;;;;;;;5049812;28;20045;-65
2023/10/26 00:33:52;;;;;;;30.85;18.45;;;;;;;;;;5050352;28;20124;-65
2023/10/26 00:36:18;;;;;;;27.50;17.77;;;;;;;;;;5050452;28;20182;-65
2023/10/26 00:38:44;;;;;;;23.88;17.00;;;;;;;;;;5049760;28;20044;-65
2023/10/26 00:41:10;;;;;;;26.52;17.27;;;;;;;;;;5049922;28;20045;-65
2023/10/26 00:43:36;;;;;;;30.17;17.52;;;;;;;;;;5049758;28;20132;-65
2023/10/26 00:46:03;;;;;;;27.75;17.58;;;;;;;;;;5049347;28;20041;-65
2023/10/26 00:48:29;;;;;;;25.90;16.92;;;;;;;;;;5049753;28;20494;-65
2023/10/26 00:50:55;;;;;;;30.88;17.95;;;;;;;;;;5050095;28;20052;-65
2023/10/26 00:53:21;;;;;;;27.88;17.58;;;;;;;;;;5049522;28;20055;-65
2023/10/26 00:55:49;;;;;;;26.50;17.60;;;;;;;;;;5049955;28;20403;-65
2023/10/26 00:58:15;;;;;;;25.20;17.05;;;;;;;;;;5050237;28;20132;-65
2023/10/26 01:00:41;;;;;;;28.75;17.67;;;;;;;;;;5049606;28;20052;-65
2023/10/26 01:03:08;;;;;;;27.20;17.92;;;;;;;;;;5049857;28;20533;-65
2023/10/26 01:05:34;;;;;;;30.08;18.58;;;;;;;;;;5049733;28;20055;-65
2023/10/26 01:08:00;;;;;;;26.67;17.73;;;;;;;;;;5049498;28;20044;-65
2023/10/26 01:10:26;;;;;;;26.88;18.02;;;;;;;;;;5049653;28;20509;-65
2023/10/26 01:12:53;;;;;;;27.77;18.27;;;;;;;;;;5049833;28;20068;-65
2023/10/26 01:15:19;;;;;;;29.52;19.02;;;;;;;;;;5049353;28;20048;-65
2023/10/26 01:17:45;;;;;;;31.65;17.27;;;;;;;;;;5049465;28;20120;-65
2023/10/26 01:20:17;;;;;;;28.15;19.10;;;;;;;;;;5049277;28;20140;-65
2023/10/26 01:22:43;;;;;;;30.42;18.48;;;;;;;;;;5049353;28;20498;-65
2023/10/26 01:25:09;;;;;;;26.90;17.90;;;;;;;;;;5049676;28;20152;-65
2023/10/26 01:27:37;;;;;;;27.30;18.60;;;;;;;;;;5049391;28;20087;-65
2023/10/26 01:30:03;;;;;;;30.17;18.70;;;;;;;;;;5049467;28;20068;-65
2023/10/26 01:32:29;;;;;;;26.48;18.52;;;;;;;;;;5049495;28;20044;-65
2023/10/26 01:34:55;;;;;;;33.40;20.10;;;;;;;;;;5049259;28;20056;-65
2023/10/26 01:37:21;;;;;;;36.55;20.27;;;;;;;;;;5049200;28;20045;-65
2023/10/26 01:39:47;;;;;;;29.98;20.08;;;;;;;;;;5049368;28;20123;-65
2023/10/26 01:42:13;;;;;;;33.05;20.88;;;;;;;;;;5049400;28;20175;-65
2023/10/26 01:44:39;;;;;;;29.35;20.10;;;;;;;;;;5048694;28;20395;-65
2023/10/26 01:47:06;;;;;;;31.92;19.67;;;;;;;;;;5049003;28;20095;-65
2023/10/26 01:49:32;;;;;;;31.50;20.23;;;;;;;;;;5049034;28;20183;-65
2023/10/26 01:51:58;;;;;;;31.40;19.48;;;;;;;;;;5049054;28;20124;-65
2023/10/26 01:54:24;;;;;;;28.42;19.58;;;;;;;;;;5031222;28;20468;-65
2023/10/26 01:56:50;;;;;;;37.50;20.80;;;;;;;;;;5049203;28;20166;-65
2023/10/26 01:59:16;;;;;;;33.40;20.30;;;;;;;;;;5051807;28;20045;-65
2023/10/26 02:01:42;;;;;;;31.40;21.20;;;;;;;;;;5052666;28;20041;-65
2023/10/26 02:04:08;;;;;;;29.33;19.80;;;;;;;;;;5053003;28;20048;-65
2023/10/26 02:06:34;;;;;;;31.98;20.90;;;;;;;;;;5052679;28;20055;-65
2023/10/26 02:09:00;;;;;;;31.10;20.48;;;;;;;;;;5052681;28;20052;-65
2023/10/26 02:11:26;;;;;;;32.20;20.35;;;;;;;;;;5053210;28;20432;-65
2023/10/26 02:13:52;;;;;;;31.27;20.35;;;;;;;;;;5053111;28;20044;-65
2023/10/26 02:16:20;;;;;;;31.65;20.85;;;;;;;;;;5052435;28;20048;-65
2023/10/26 02:18:46;;;;;;;33.55;22.00;;;;;;;;;;5052843;28;20049;-65
2023/10/26 02:21:12;;;;;;;32.17;20.67;;;;;;;;;;5052567;28;20044;-65
2023/10/26 02:23:41;;;;;;;32.95;21.67;;;;;;;;;;5052257;28;20037;-65
2023/10/26 02:26:07;;;;;;;32.55;21.33;;;;;;;;;;5052537;28;20055;-65
2023/10/26 02:28:33;;;;;;;40.78;23.05;;;;;;;;;;5052681;28;20226;-65
2023/10/26 02:30:59;;;;;;;35.55;23.33;;;;;;;;;;5052125;28;20056;-65
2023/10/26 02:33:25;;;;;;;38.20;24.15;;;;;;;;;;5052700;28;20407;-65
2023/10/26 02:35:51;;;;;;;38.80;24.05;;;;;;;;;;5052797;28;20052;-65
2023/10/26 02:38:17;;;;;;;35.72;22.40;;;;;;;;;;5052150;28;20040;-65
2023/10/26 02:40:43;;;;;;;35.38;23.40;;;;;;;;;;5052320;28;20076;-65
2023/10/26 02:43:09;;;;;;;31.73;21.58;;;;;;;;;;5052438;28;20041;-65
2023/10/26 02:45:35;;;;;;;38.30;23.77;;;;;;;;;;5051928;28;20427;-65
2023/10/26 02:48:04;;;;;;;38.22;24.33;;;;;;;;;;5052369;28;20044;-65
2023/10/26 02:50:30;;;;;;;36.45;23.80;;;;;;;;;;5052274;28;20327;-65
2023/10/26 02:52:56;;;;;;;38.25;23.60;;;;;;;;;;5051707;28;20041;-65
2023/10/26 02:55:24;;;;;;;40.92;24.80;;;;;;;;;;5017542;28;20037;-65
2023/10/26 02:57:50;;;;;;;33.33;23.92;;;;;;;;;;5052232;28;20480;-65
2023/10/26 03:00:17;;;;;;;37.58;24.85;;;;;;;;;;5051553;28;20037;-65
2023/10/26 03:02:43;;;;;;;35.55;24.20;;;;;;;;;;5052039;28;20041;-65
2023/10/26 03:05:09;;;;;;;44.55;25.42;;;;;;;;;;5052033;28;20048;-65
2023/10/26 03:07:36;;;;;;;40.60;25.08;;;;;;;;;;5051555;28;20094;-65
2023/10/26 03:10:02;;;;;;;39.10;25.27;;;;;;;;;;5051094;28;20049;-65
2023/10/26 03:12:28;;;;;;;39.63;25.58;;;;;;;;;;5051920;28;20049;-65
2023/10/26 03:14:53;;;;;;;42.58;26.00;;;;;;;;;;5051507;28;20372;-65
2023/10/26 03:17:19;;;;;;;44.53;27.00;;;;;;;;;;5033623;28;20116;-65
2023/10/26 03:19:46;;;;;;;42.15;25.63;;;;;;;;;;5051534;28;20051;-65
2023/10/26 03:22:12;;;;;;;46.60;27.35;;;;;;;;;;5033211;28;20076;-65
2023/10/26 03:24:38;;;;;;;44.60;26.77;;;;;;;;;;5051631;28;20122;-65
2023/10/26 03:27:04;;;;;;;46.20;27.48;;;;;;;;;;5051533;28;20128;-65
2023/10/26 03:29:30;;;;;;;42.88;26.63;;;;;;;;;;5051222;28;20087;-65
2023/10/26 03:31:57;;;;;;;46.17;26.73;;;;;;;;;;5051513;28;20277;-65
2023/10/26 03:34:23;;;;;;;44.65;27.00;;;;;;;;;;5051596;28;20068;-65
2023/10/26 03:36:49;;;;;;;43.55;25.50;;;;;;;;;;5051027;28;20080;-65
2023/10/26 03:39:15;;;;;;;45.00;27.70;;;;;;;;;;5033469;28;20072;-65
2023/10/26 03:41:42;;;;;;;46.30;28.30;;;;;;;;;;5051294;28;20699;-65
2023/10/26 03:44:08;;;;;;;45.42;27.77;;;;;;;;;;5051087;28;20041;-65
2023/10/26 03:46:34;;;;;;;41.90;27.13;;;;;;;;;;5051105;28;20139;-65
2023/10/26 03:49:00;;;;;;;47.53;27.73;;;;;;;;;;5051231;28;20474;-65
2023/10/26 03:51:26;;;;;;;45.22;27.13;;;;;;;;;;5050612;28;20080;-65
2023/10/26 03:53:52;;;;;;;42.08;27.95;;;;;;;;;;5050707;28;20477;-65
2023/10/26 03:56:18;;;;;;;49.63;28.48;;;;;;;;;;5050971;28;20043;-65
2023/10/26 03:58:44;;;;;;;53.15;28.10;;;;;;;;;;5032508;28;20116;-65
2023/10/26 04:01:10;;;;;;;45.33;27.40;;;;;;;;;;5050987;28;20072;-65
2023/10/26 04:03:36;;;;;;;49.20;27.92;;;;;;;;;;5050835;28;20435;-65
2023/10/26 04:06:03;;;;;;;51.95;29.90;;;;;;;;;;5050378;28;20154;-65
2023/10/26 04:08:29;;;;;;;47.35;28.60;;;;;;;;;;5051224;28;20045;-65
2023/10/26 04:10:54;;;;;;;46.33;28.42;;;;;;;;;;5050632;28;20041;-65
2023/10/26 04:13:20;;;;;;;52.25;29.10;;;;;;;;;;5050472;28;20032;-65
2023/10/26 04:15:48;;;;;;;47.40;29.25;;;;;;;;;;5050447;28;20423;-65
2023/10/26 04:18:14;;;;;;;46.47;28.52;;;;;;;;;;5050727;28;20048;-65
2023/10/26 04:20:40;;;;;;;49.55;29.80;;;;;;;;;;5050005;28;20041;-65
2023/10/26 04:23:06;;;;;;;46.83;26.20;;;;;;;;;;5050269;28;20124;-65
2023/10/26 04:25:32;;;;;;;48.75;29.52;;;;;;;;;;5050478;28;20037;-65
2023/10/26 04:27:58;;;;;;;49.45;30.45;;;;;;;;;;5050015;28;20210;-65
2023/10/26 04:30:24;;;;;;;51.08;30.67;;;;;;;;;;5050447;28;20131;-65
2023/10/26 04:32:52;;;;;;;46.47;29.27;;;;;;;;;;5051585;28;20484;-65
2023/10/26 04:35:19;;;;;;;50.10;29.38;;;;;;;;;;5051106;28;20094;-65
2023/10/26 04:37:45;;;;;;;49.70;30.08;;;;;;;;;;5051585;28;20044;-65
2023/10/26 04:40:11;;;;;;;47.47;28.95;;;;;;;;;;5051662;28;20102;-65
2023/10/26 04:42:37;;;;;;;49.38;29.73;;;;;;;;;;5051439;28;20037;-65
2023/10/26 04:45:03;;;;;;;47.53;28.20;;;;;;;;;;5050976;28;20518;-65
2023/10/26 04:47:29;;;;;;;43.58;28.42;;;;;;;;;;5051402;28;20115;-65
2023/10/26 04:49:55;;;;;;;48.30;27.90;;;;;;;;;;5050851;28;20210;-65
2023/10/26 04:52:21;;;;;;;49.72;29.17;;;;;;;;;;5050981;28;20499;-65
2023/10/26 04:54:48;;;;;;;48.78;29.45;;;;;;;;;;5032814;28;20142;-65
2023/10/26 04:57:14;;;;;;;46.38;28.30;;;;;;;;;;5050750;28;20119;-65
2023/10/26 04:59:40;;;;;;;46.33;27.67;;;;;;;;;;5051381;28;20037;-65
2023/10/26 05:02:06;;;;;;;48.20;28.58;;;;;;;;;;5051306;28;20044;-65
2023/10/26 05:04:32;;;;;;;43.90;28.58;;;;;;;;;;5051040;28;20111;-65
2023/10/26 05:06:58;;;;;;;48.47;28.40;;;;;;;;;;5050898;28;20060;-65
2023/10/26 05:09:24;;;;;;;47.10;28.75;;;;;;;;;;5051315;28;20082;-65
2023/10/26 05:11:50;;;;;;;44.58;28.35;;;;;;;;;;5050848;28;20082;-65
2023/10/26 05:14:16;;;;;;;43.08;27.55;;;;;;;;;;5051267;28;20386;-65
2023/10/26 05:16:42;;;;;;;45.70;27.52;;;;;;;;;;5051146;28;20064;-65
2023/10/26 05:19:08;;;;;;;42.97;26.50;;;;;;;;;;5051059;28;20045;-65
2023/10/26 05:21:34;;;;;;;41.97;27.55;;;;;;;;;;5051169;28;20446;-65
2023/10/26 05:24:00;;;;;;;42.58;28.00;;;;;;;;;;5033020;28;20049;-65
2023/10/26 05:26:26;;;;;;;41.42;27.20;;;;;;;;;;5051016;28;20387;-65
2023/10/26 05:28:52;;;;;;;44.20;28.02;;;;;;;;;;5050855;28;20597;-65
2023/10/26 05:31:18;;;;;;;44.00;27.90;;;;;;;;;;5050678;28;20045;-65
2023/10/26 05:33:44;;;;;;;40.35;26.40;;;;;;;;;;5053066;28;20072;-65
2023/10/26 05:36:10;;;;;;;45.53;27.17;;;;;;;;;;5054680;28;20120;-65
2023/10/26 05:38:36;;;;;;;40.45;26.30;;;;;;;;;;5055049;28;20036;-65
2023/10/26 05:41:02;;;;;;;41.92;25.77;;;;;;;;;;5054807;28;20166;-65
2023/10/26 05:43:28;;;;;;;43.88;28.63;;;;;;;;;;5054696;28;20459;-65
2023/10/26 05:46:02;;;;;;;49.10;28.17;;;;;;;;;;5054781;28;20041;-65
2023/10/26 05:48:29;;;;;;;46.58;28.48;;;;;;;;;;5054742;28;20037;-65
2023/10/26 05:50:55;;;;;;;43.35;26.33;;;;;;;;;;5054529;28;20120;-65
2023/10/26 05:53:21;;;;;;;40.50;26.88;;;;;;;;;;5054192;28;20443;-65
2023/10/26 05:55:57;;;;;;;38.03;24.75;;;;;;;;;;5054365;28;20045;-65
2023/10/26 05:58:23;;;;;;;42.70;26.48;;;;;;;;;;5053138;28;20036;-65
2023/10/26 06:00:49;;;;;;;50.90;28.88;;;;;;;;;;5054174;28;20041;-65
2023/10/26 06:03:15;;;;;;;42.03;26.00;;;;;;;;;;5053807;28;20037;-65
2023/10/26 06:05:41;;;;;;;39.50;25.33;;;;;;;;;;5054115;28;20052;-65
2023/10/26 06:08:07;;;;;;;37.92;25.42;;;;;;;;;;5054526;28;20045;-65
2023/10/26 06:10:33;;;;;;;40.95;25.80;;;;;;;;;;5054574;28;20087;-65
2023/10/26 06:12:59;;;;;;;46.33;26.60;;;;;;;;;;5054076;28;20032;-65
2023/10/26 06:15:26;;;;;;;38.13;24.95;;;;;;;;;;5052984;28;20041;-64
2023/10/26 06:17:52;;;;;;;40.78;26.20;;;;;;;;;;5053933;28;20040;-65
2023/10/26 06:20:18;;;;;;;40.35;24.35;;;;;;;;;;5053382;28;20395;-65
2023/10/26 06:22:44;;;;;;;34.75;23.30;;;;;;;;;;5054142;28;20041;-65
2023/10/26 06:25:10;;;;;;;49.38;27.92;;;;;;;;;;5053713;28;20487;-64
2023/10/26 06:27:36;;;;;;;54.65;28.45;;;;;;;;;;5053382;28;20120;-64
2023/10/26 06:30:03;;;;;;;43.33;26.52;;;;;;;;;;5053505;28;20123;-64
2023/10/26 06:32:29;;;;;;;40.00;25.70;;;;;;;;;;5053325;28;20045;-65
2023/10/26 06:34:56;;;;;;;54.78;28.92;;;;;;;;;;5053415;28;20037;-65
2023/10/26 06:37:23;;;;;;;45.47;28.40;;;;;;;;;;5053561;28;20052;-65
2023/10/26 06:39:49;;;;;;;44.97;28.33;;;;;;;;;;5053290;28;20049;-65
2023/10/26 06:42:15;;;;;;;48.50;28.58;;;;;;;;;;5053327;28;20652;-64
2023/10/26 06:44:41;;;;;;;47.50;27.23;;;;;;;;;;5052128;28;20041;-64
2023/10/26 06:47:07;;;;;;;42.38;26.33;;;;;;;;;;5052953;28;20040;-65
2023/10/26 06:49:33;;;;;;;49.67;29.00;;;;;;;;;;5052951;28;20487;-65
2023/10/26 06:51:59;;;;;;;51.92;29.00;;;;;;;;;;5053382;28;20639;-65
2023/10/26 06:54:25;;;;;;;52.88;29.25;;;;;;;;;;5053070;28;20056;-65
2023/10/26 06:56:51;;;;;;;63.58;29.75;;;;;;;;;;5052933;28;20124;-65
2023/10/26 06:59:17;;;;;;;52.30;30.55;;;;;;;;;;5053172;28;20037;-65
2023/10/26 07:01:44;;;;;;;69.72;31.83;;;;;;;;;;5053195;28;20036;-65
2023/10/26 07:04:10;;;;;;;77.93;32.33;;;;;;;;;;5052844;28;20128;-65
2023/10/26 07:06:36;;;;;;;57.33;31.27;;;;;;;;;;5035435;28;20118;-65
2023/10/26 07:09:03;;;;;;;81.07;31.73;;;;;;;;;;5052969;28;20402;-65
2023/10/26 07:11:29;;;;;;;102.40;32.13;;;;;;;;;;5052758;28;20056;-64
2023/10/26 07:13:55;;;;;;;96.90;30.98;;;;;;;;;;5052585;28;20041;-64
2023/10/26 07:16:21;;;;;;;98.28;32.90;;;;;;;;;;5052714;28;20430;-64
2023/10/26 07:18:47;;;;;;;62.08;33.80;;;;;;;;;;5052136;28;20116;-64
2023/10/26 07:21:13;;;;;;;91.28;30.33;;;;;;;;;;5052611;28;20425;-65
2023/10/26 07:23:39;;;;;;;66.05;30.13;;;;;;;;;;5052529;28;20033;-65
2023/10/26 07:26:05;;;;;;;101.72;31.50;;;;;;;;;;5052447;28;20086;-64
2023/10/26 07:28:31;;;;;;;93.72;31.48;;;;;;;;;;5052554;28;20083;-65
2023/10/26 07:30:58;;;;;;;88.60;30.00;;;;;;;;;;5052699;28;20553;-65
2023/10/26 07:33:24;;;;;;;90.75;31.90;;;;;;;;;;5052187;28;20098;-64
2023/10/26 07:35:56;;;;;;;64.72;29.30;;;;;;;;;;5052485;28;20432;-65
2023/10/26 07:38:24;;;;;;;94.80;31.52;;;;;;;;;;5051765;28;20179;-65
2023/10/26 07:40:54;;;;;;;80.32;32.00;;;;;;;;;;5051469;28;20044;-64
2023/10/26 07:43:20;;;;;;;110.43;33.22;;;;;;;;;;5052003;28;20418;-64
2023/10/26 07:45:47;;;;;;;81.90;33.92;;;;;;;;;;5051629;28;20055;-64
2023/10/26 07:48:13;;;;;;;65.35;31.45;;;;;;;;;;5051811;28;20045;-64
2023/10/26 07:50:40;;;;;;;58.80;31.55;;;;;;;;;;5052160;28;20044;-64
2023/10/26 07:53:06;;;;;;;61.63;32.05;;;;;;;;;;5051511;28;20132;-63
2023/10/26 07:55:33;;;;;;;61.15;33.38;;;;;;;;;;5051215;28;20037;-64
2023/10/26 07:57:59;;;;;;;63.90;34.38;;;;;;;;;;5049860;28;20037;-64
2023/10/26 08:00:25;;;;;;;60.88;34.08;;;;;;;;;;5051390;28;20047;-65
2023/10/26 08:02:51;;;;;;;59.88;33.47;;;;;;;;;;5034303;28;20094;-65
2023/10/26 08:05:17;;;;;;;61.05;34.00;;;;;;;;;;5051131;28;20041;-64
2023/10/26 08:07:45;;;;;;;61.35;34.08;;;;;;;;;;5050882;28;20040;-65
2023/10/26 08:10:11;;;;;;;61.05;33.63;;;;;;;;;;5050661;28;20080;-65
2023/10/26 08:12:37;;;;;;;56.65;32.38;;;;;;;;;;5049939;28;20044;-65
2023/10/26 08:15:04;;;;;;;61.15;33.85;;;;;;;;;;5051412;28;20371;-64
2023/10/26 08:17:36;;;;;;;61.08;34.22;;;;;;;;;;5050308;28;20036;-64
2023/10/26 08:20:04;;;;;;;58.83;33.75;;;;;;;;;;5051124;28;20120;-65
2023/10/26 08:22:31;;;;;;;64.90;34.50;;;;;;;;;;5033553;28;20131;-64
2023/10/26 08:24:57;;;;;;;60.13;33.40;;;;;;;;;;5032772;28;20094;-64
2023/10/26 08:27:24;;;;;;;65.60;33.90;;;;;;;;;;5051194;28;20056;-65
2023/10/26 08:29:53;;;;;;;59.70;34.72;;;;;;;;;;5050380;28;20053;-65
2023/10/26 08:32:19;;;;;;;60.60;34.08;;;;;;;;;;5036234;28;20044;-65
2023/10/26 08:34:46;;;;;;;53.80;33.33;;;;;;;;;;5051038;28;20037;-65
2023/10/26 08:37:12;;;;;;;59.67;34.95;;;;;;;;;;5050784;28;20498;-65
2023/10/26 08:39:39;;;;;;;59.42;35.35;;;;;;;;;;5049717;28;20025;-65
2023/10/26 08:42:05;;;;;;;57.63;33.03;;;;;;;;;;5050601;28;20076;-65
2023/10/26 08:44:32;;;;;;;56.50;33.63;;;;;;;;;;5050532;28;20062;-66
2023/10/26 08:46:59;;;;;;;58.08;33.58;;;;;;;;;;5050159;28;20047;-65
2023/10/26 08:49:27;;;;;;;54.90;32.17;;;;;;;;;;5050551;28;20051;-65
2023/10/26 08:51:54;;;;;;;54.00;32.13;;;;;;;;;;5050301;28;20045;-65
2023/10/26 08:54:20;;;;;;;55.72;32.30;;;;;;;;;;5049786;28;20059;-63
2023/10/26 08:56:46;;;;;;;57.67;33.42;;;;;;;;;;5050147;28;20041;-63
2023/10/26 08:59:12;;;;;;;56.85;32.50;;;;;;;;;;5050138;28;20549;-63
2023/10/26 09:01:38;;;;;;;51.20;32.05;;;;;;;;;;5050097;28;20044;-64
2023/10/26 09:04:11;;;;;;;53.58;31.67;;;;;;;;;;5031967;28;20106;-63
2023/10/26 09:06:47;;;;;;;50.35;30.50;;;;;;;;;;5050212;28;20146;-64
2023/10/26 09:09:16;;;;;;;49.67;30.40;;;;;;;;;;5048840;28;20119;-64
2023/10/26 09:11:46;;;;;;;52.53;30.90;;;;;;;;;;5050357;28;20461;-65
2023/10/26 09:14:16;;;;;;;48.05;29.45;;;;;;;;;;5050048;28;20411;-65
2023/10/26 09:16:44;;;;;;;50.15;28.67;;;;;;;;;;5049531;28;20388;-65
2023/10/26 09:19:11;;;;;;;47.03;29.52;;;;;;;;;;5031981;28;20102;-65
2023/10/26 09:21:50;;;;;;;48.40;29.35;;;;;;;;;;5032126;28;20052;-65
2023/10/26 09:24:21;;;;;;;47.03;28.13;;;;;;;;;;5031158;28;20139;-66
2023/10/26 09:26:47;;;;;;;46.10;27.92;;;;;;;;;;5050108;28;20044;-64
2023/10/26 09:29:13;;;;;;;44.20;27.80;;;;;;;;;;5049814;28;20377;-65
2023/10/26 09:31:52;;;;;;;41.78;25.70;;;;;;;;;;5049725;28;20511;-65
2023/10/26 09:34:18;;;;;;;37.92;24.77;;;;;;;;;;5048341;28;20037;-64
2023/10/26 09:36:57;;;;;;;43.70;27.58;;;;;;;;;;5050055;28;20394;-64
2023/10/26 09:39:24;;;;;;;39.63;25.52;;;;;;;;;;5049369;28;20068;-64
2023/10/26 09:41:50;;;;;;;40.50;25.30;;;;;;;;;;5049879;28;20044;-65
2023/10/26 09:44:17;;;;;;;43.30;27.02;;;;;;;;;;5049670;28;20124;-65
2023/10/26 09:46:43;;;;;;;41.17;25.23;;;;;;;;;;5049757;28;20045;-65
2023/10/26 09:49:09;;;;;;;38.00;25.17;;;;;;;;;;5049751;28;20041;-65
2023/10/26 09:51:35;;;;;;;39.05;25.02;;;;;;;;;;5049680;28;20045;-64
2023/10/26 09:54:04;;;;;;;38.90;25.65;;;;;;;;;;5048987;28;20045;-64
2023/10/26 09:56:31;;;;;;;38.20;24.88;;;;;;;;;;5048117;28;20052;-64
2023/10/26 09:58:59;;;;;;;42.38;26.48;;;;;;;;;;5049512;28;20411;-65
2023/10/26 10:01:35;;;;;;;42.95;26.42;;;;;;;;;;5049659;28;20045;-64
2023/10/26 10:04:02;;;;;;;39.47;24.85;;;;;;;;;;5044330;28;20037;-64
2023/10/26 10:06:50;;;;;;;51.28;26.75;;;;;;;;;;5049631;28;20053;-64
2023/10/26 10:09:19;;;;;;;43.55;26.38;;;;;;;;;;5031280;28;20048;-65
2023/10/26 10:11:45;;;;;;;47.08;26.85;;;;;;;;;;5049613;28;20095;-65
2023/10/26 10:14:31;;;;;;;42.72;24.80;;;;;;;;;;5049298;28;20529;-65
2023/10/26 10:16:57;;;;;;;39.58;24.40;;;;;;;;;;5034422;28;20047;-64
2023/10/26 10:19:29;;;;;;;41.70;24.45;;;;;;;;;;5050868;28;20073;-65
2023/10/26 10:21:55;;;;;;;40.88;24.42;;;;;;;;;;5052769;28;20067;-65
2023/10/26 10:24:40;;;;;;;37.33;23.63;;;;;;;;;;5051221;28;20442;-65
2023/10/26 10:27:06;;;;;;;36.92;22.85;;;;;;;;;;5043899;28;20045;-64
2023/10/26 10:29:32;;;;;;;36.78;22.30;;;;;;;;;;5052757;28;20037;-64
2023/10/26 10:31:58;;;;;;;33.85;22.33;;;;;;;;;;5052382;28;20049;-64
2023/10/26 10:34:27;;;;;;;34.00;22.48;;;;;;;;;;5052543;28;20041;-65
2023/10/26 10:37:10;;;;;;;33.83;22.15;;;;;;;;;;5052287;28;20400;-65
2023/10/26 10:39:36;;;;;;;35.40;22.13;;;;;;;;;;5052393;28;20051;-65
2023/10/26 10:42:04;;;;;;;33.95;21.48;;;;;;;;;;5053335;28;20041;-65
2023/10/26 10:44:30;;;;;;;33.85;21.73;;;;;;;;;;5052889;28;20484;-65
2023/10/26 10:46:56;;;;;;;36.00;21.75;;;;;;;;;;5052771;28;20095;-65
2023/10/26 10:49:25;;;;;;;37.53;23.33;;;;;;;;;;5053082;28;20048;-65
2023/10/26 10:51:52;;;;;;;33.85;22.80;;;;;;;;;;5053096;28;20107;-65
2023/10/26 10:54:22;;;;;;;36.78;21.73;;;;;;;;;;5052299;28;20061;-65
2023/10/26 10:56:49;;;;;;;36.22;22.45;;;;;;;;;;5034677;28;20037;-65
2023/10/26 10:59:22;;;;;;;37.47;22.65;;;;;;;;;;5052743;28;20043;-65
2023/10/26 11:01:49;;;;;;;34.78;21.85;;;;;;;;;;5052509;28;20131;-65
2023/10/26 11:04:15;;;;;;;32.30;21.70;;;;;;;;;;5052718;28;20606;-64
2023/10/26 11:06:49;;;;;;;29.55;20.10;;;;;;;;;;5052436;28;20127;-63
2023/10/26 11:09:25;;;;;;;31.08;20.27;;;;;;;;;;5051779;28;20048;-64
2023/10/26 11:11:52;;;;;;;31.15;19.63;;;;;;;;;;5052684;28;20041;-65
2023/10/26 11:14:20;;;;;;;33.63;21.20;;;;;;;;;;5051965;28;20037;-65
2023/10/26 11:16:46;;;;;;;26.80;17.83;;;;;;;;;;5051801;28;20488;-65
2023/10/26 11:19:12;;;;;;;30.13;18.73;;;;;;;;;;5052002;28;20116;-65
2023/10/26 11:21:39;;;;;;;25.55;17.48;;;;;;;;;;5034073;28;20430;-65
2023/10/26 11:24:05;;;;;;;23.73;17.00;;;;;;;;;;5051961;28;20498;-63
2023/10/26 11:26:31;;;;;;;24.48;16.80;;;;;;;;;;5052343;28;20048;-64
2023/10/26 11:29:00;;;;;;;24.73;15.85;;;;;;;;;;5051932;28;20044;-64
2023/10/26 11:31:39;;;;;;;27.38;18.08;;;;;;;;;;5050998;28;20073;-64
2023/10/26 11:34:09;;;;;;;30.55;21.05;;;;;;;;;;5052149;28;20040;-64
2023/10/26 11:36:38;;;;;;;29.20;18.83;;;;;;;;;;5051922;28;20124;-65
2023/10/26 11:39:05;;;;;;;28.27;18.40;;;;;;;;;;5052002;28;20053;-65
2023/10/26 11:41:33;;;;;;;26.48;17.73;;;;;;;;;;5051709;28;20063;-65
2023/10/26 11:44:00;;;;;;;29.77;18.02;;;;;;;;;;5051565;28;20055;-65
2023/10/26 11:46:29;;;;;;;26.42;18.33;;;;;;;;;;5051991;28;20581;-64
2023/10/26 11:48:55;;;;;;;26.83;17.92;;;;;;;;;;5051826;28;20049;-65
2023/10/26 11:51:21;;;;;;;24.50;16.83;;;;;;;;;;5052014;28;20140;-64
2023/10/26 11:53:47;;;;;;;24.98;17.55;;;;;;;;;;5051476;28;20702;-64
2023/10/26 11:56:13;;;;;;;25.75;17.48;;;;;;;;;;5033923;28;20036;-64
2023/10/26 11:58:39;;;;;;;25.17;18.42;;;;;;;;;;5051810;28;20435;-65
2023/10/26 12:01:06;;;;;;;23.15;16.35;;;;;;;;;;5051085;28;20053;-65
2023/10/26 12:03:32;;;;;;;22.80;16.20;;;;;;;;;;5051726;28;20095;-65
2023/10/26 12:05:58;;;;;;;25.38;18.02;;;;;;;;;;5051449;28;20128;-65
2023/10/26 12:08:24;;;;;;;26.33;17.55;;;;;;;;;;5051151;28;20083;-65
2023/10/26 12:10:50;;;;;;;23.95;17.00;;;;;;;;;;5050929;28;20036;-65
2023/10/26 12:13:16;;;;;;;23.65;16.70;;;;;;;;;;5051536;28;20041;-64
2023/10/26 12:15:42;;;;;;;28.25;16.85;;;;;;;;;;5051064;28;20036;-64
2023/10/26 12:18:08;;;;;;;23.45;17.05;;;;;;;;;;5051148;28;20144;-64
2023/10/26 12:20:34;;;;;;;25.35;17.25;;;;;;;;;;5048628;28;20051;-64
2023/10/26 12:23:00;;;;;;;26.42;17.52;;;;;;;;;;5049107;28;20110;-64
2023/10/26 12:25:27;;;;;;;26.88;16.92;;;;;;;;;;5051127;28;20499;-64
2023/10/26 12:27:53;;;;;;;23.92;17.15;;;;;;;;;;5050512;28;20515;-64
2023/10/26 12:30:19;;;;;;;19.70;14.98;;;;;;;;;;5040319;28;20156;-64
2023/10/26 12:32:45;;;;;;;23.30;16.33;;;;;;;;;;5050676;28;20518;-64
2023/10/26 12:35:11;;;;;;;23.83;16.80;;;;;;;;;;5050921;28;20076;-64
2023/10/26 12:37:37;;;;;;;26.08;16.50;;;;;;;;;;5032531;28;20055;-64
2023/10/26 12:40:08;;;;;;;19.83;15.20;;;;;;;;;;5050764;28;20041;-64
2023/10/26 12:42:34;;;;;;;20.73;15.75;;;;;;;;;;5051062;28;20067;-64
2023/10/26 12:45:00;;;;;;;19.75;14.40;;;;;;;;;;5050375;28;20045;-64
2023/10/26 12:47:26;;;;;;;21.83;15.23;;;;;;;;;;5050512;28;20037;-64
2023/10/26 12:49:52;;;;;;;19.65;15.02;;;;;;;;;;5050931;28;20073;-64
2023/10/26 12:52:18;;;;;;;20.77;14.45;;;;;;;;;;5050465;28;20785;-64
2023/10/26 12:54:44;;;;;;;17.38;13.85;;;;;;;;;;5050673;28;20541;-63
2023/10/26 12:57:10;;;;;;;18.35;13.95;;;;;;;;;;5050408;28;20045;-64
2023/10/26 12:59:36;;;;;;;22.67;15.10;;;;;;;;;;5050255;28;20118;-64
2023/10/26 13:02:02;;;;;;;21.02;15.27;;;;;;;;;;5050701;28;20582;-64
2023/10/26 13:04:28;;;;;;;18.98;13.98;;;;;;;;;;5050350;28;20124;-65
2023/10/26 13:06:54;;;;;;;21.20;15.63;;;;;;;;;;5050143;28;20188;-65
2023/10/26 13:09:20;;;;;;;20.02;14.00;;;;;;;;;;5050429;28;20047;-65
2023/10/26 13:11:47;;;;;;;19.30;14.55;;;;;;;;;;5050444;28;20128;-65
2023/10/26 13:14:13;;;;;;;18.52;14.38;;;;;;;;;;5050213;28;20041;-65
2023/10/26 13:16:39;;;;;;;20.33;14.30;;;;;;;;;;5050827;28;20049;-65
2023/10/26 13:19:05;;;;;;;19.38;13.77;;;;;;;;;;5050240;28;20058;-65
2023/10/26 13:21:31;;;;;;;17.80;13.07;;;;;;;;;;5050415;28;20130;-65
2023/10/26 13:23:57;;;;;;;14.45;11.95;;;;;;;;;;5047209;28;20045;-64
2023/10/26 13:26:23;;;;;;;15.55;12.25;;;;;;;;;;5050615;28;20040;-65
2023/10/26 13:28:49;;;;;;;15.15;12.05;;;;;;;;;;5050282;28;20491;-64
2023/10/26 13:31:16;;;;;;;15.98;12.30;;;;;;;;;;5050441;28;20048;-65
2023/10/26 13:33:41;;;;;;;17.38;12.52;;;;;;;;;;5016138;28;20040;-64
2023/10/26 13:36:08;;;;;;;18.20;12.85;;;;;;;;;;5050170;28;20519;-64
2023/10/26 13:38:34;;;;;;;15.85;12.63;;;;;;;;;;5050593;28;20048;-64
2023/10/26 13:41:00;;;;;;;15.85;11.82;;;;;;;;;;5050140;28;20075;-64
2023/10/26 13:43:26;;;;;;;14.98;11.43;;;;;;;;;;5050252;28;20091;-64
2023/10/26 13:45:52;;;;;;;15.68;12.68;;;;;;;;;;5050512;28;20040;-65
2023/10/26 13:48:18;;;;;;;16.45;12.63;;;;;;;;;;5050505;28;20471;-65
2023/10/26 13:50:44;;;;;;;16.02;12.73;;;;;;;;;;5049945;28;20045;-65
2023/10/26 13:53:11;;;;;;;17.20;13.55;;;;;;;;;;5050178;28;20099;-64
2023/10/26 13:55:37;;;;;;;17.95;12.85;;;;;;;;;;5053945;28;20051;-63
2023/10/26 13:58:05;;;;;;;16.70;13.07;;;;;;;;;;5054162;28;20041;-64
2023/10/26 14:00:31;;;;;;;19.67;14.43;;;;;;;;;;5037033;28;20450;-64
2023/10/26 14:02:57;;;;;;;19.98;14.32;;;;;;;;;;5054290;28;20733;-64
2023/10/26 14:05:23;;;;;;;19.52;14.75;;;;;;;;;;5053617;28;20121;-63
2023/10/26 14:07:49;;;;;;;19.23;13.80;;;;;;;;;;5054097;28;20484;-63
2023/10/26 14:10:15;;;;;;;19.50;13.85;;;;;;;;;;5054379;28;20099;-63
2023/10/26 14:12:41;;;;;;;18.85;14.13;;;;;;;;;;5053877;28;20127;-63
2023/10/26 14:15:08;;;;;;;21.33;15.65;;;;;;;;;;5054031;28;20041;-64